createdAt,value
2019-05-02T00:02:09.127Z,10.50
2019-05-02T00:04:39.046Z,11.35
2019-05-02T00:07:14.358Z,13.75
2019-05-02T00:09:48.550Z,12.25
2019-05-02T00:12:17.590Z,11.60
2019-05-02T00:14:47.983Z,7.58
2019-05-02T00:17:20.328Z,10.38
2019-05-02T00:19:51.258Z,13.72
2019-05-02T00:22:22.474Z,10.90
2019-05-02T00:24:52.389Z,12.80
2019-05-02T00:27:22.256Z,15.67
2019-05-02T00:29:53.760Z,13.45
2019-05-02T00:32:23.927Z,16.00
2019-05-02T00:34:53.811Z,13.57
2019-05-02T00:37:24.494Z,16.57
2019-05-02T00:39:55.412Z,12.43
2019-05-02T00:42:25.432Z,14.43
2019-05-02T00:44:55.306Z,20.48
2019-05-02T00:47:35.965Z,13.18
2019-05-02T00:50:11.159Z,10.40
2019-05-02T00:52:38.990Z,10.35
2019-05-02T00:55:08.991Z,13.97
2019-05-02T00:57:38.848Z,13.50
2019-05-02T01:00:13.263Z,11.20
2019-05-02T01:02:43.261Z,13.70
2019-05-02T01:05:13.690Z,11.80
2019-05-02T01:07:43.609Z,14.33
2019-05-02T01:10:17.347Z,15.80
2019-05-02T01:12:46.174Z,17.52
2019-05-02T01:15:16.521Z,15.23
2019-05-02T01:17:46.422Z,10.75
2019-05-02T01:20:16.287Z,12.88
2019-05-02T01:22:47.189Z,13.87
2019-05-02T01:25:17.722Z,15.48
2019-05-02T01:27:49.264Z,15.32
2019-05-02T01:30:37.287Z,17.92
2019-05-02T01:33:21.701Z,15.40
2019-05-02T01:35:53.194Z,15.85
2019-05-02T01:38:39.932Z,16.83
2019-05-02T01:41:09.861Z,14.73
2019-05-02T01:43:39.742Z,14.73
2019-05-02T01:46:09.649Z,17.23
2019-05-02T01:48:40.019Z,15.90
2019-05-02T01:51:12.114Z,13.83
2019-05-02T01:53:42.486Z,11.93
2019-05-02T01:56:12.417Z,14.70
2019-05-02T01:58:42.309Z,14.73
2019-05-02T02:01:16.087Z,9.20
2019-05-02T02:03:45.579Z,12.98
2019-05-02T02:06:15.315Z,16.67
2019-05-02T02:08:45.845Z,15.27
2019-05-02T02:11:15.701Z,12.90
2019-05-02T02:13:45.649Z,13.20
2019-05-02T02:16:15.521Z,17.87
2019-05-02T02:18:47.002Z,11.18
2019-05-02T02:21:33.890Z,14.10
2019-05-02T02:24:21.198Z,13.53
2019-05-02T02:26:51.749Z,14.27
2019-05-02T02:29:21.682Z,13.93
2019-05-02T02:31:51.549Z,17.00
2019-05-02T02:34:29.389Z,12.83
2019-05-02T02:36:53.092Z,13.77
2019-05-02T02:39:22.973Z,13.62
2019-05-02T02:41:54.203Z,18.93
2019-05-02T02:44:33.902Z,13.87
2019-05-02T02:47:00.130Z,16.23
2019-05-02T02:49:30.055Z,12.43
2019-05-02T02:52:04.756Z,16.77
2019-05-02T02:54:36.495Z,16.13
2019-05-02T02:57:05.083Z,13.13
2019-05-02T02:59:35.042Z,13.90
2019-05-02T03:02:10.017Z,13.37
2019-05-02T03:04:36.662Z,9.97
2019-05-02T03:07:06.571Z,14.38
2019-05-02T03:09:36.574Z,12.10
2019-05-02T03:12:23.126Z,11.90
2019-05-02T03:14:54.969Z,13.00
2019-05-02T03:17:26.442Z,14.30
2019-05-02T03:20:01.627Z,11.83
2019-05-02T03:22:28.022Z,14.50
2019-05-02T03:24:58.166Z,15.60
2019-05-02T03:27:29.779Z,13.57
2019-05-02T03:29:59.678Z,13.70
2019-05-02T03:32:34.096Z,13.35
2019-05-02T03:35:01.668Z,13.60
2019-05-02T03:37:32.641Z,12.93
2019-05-02T03:40:02.552Z,19.47
2019-05-02T03:42:44.048Z,17.63
2019-05-02T03:45:05.084Z,11.57
2019-05-02T03:47:37.016Z,14.50
2019-05-02T03:50:09.432Z,14.30
2019-05-02T03:52:43.524Z,19.20
2019-05-02T03:55:11.710Z,21.63
2019-05-02T03:57:42.278Z,17.70
2019-05-02T04:00:20.182Z,16.80
2019-05-02T04:02:44.939Z,19.43
2019-05-02T04:05:14.936Z,19.90
2019-05-02T04:07:45.211Z,23.17
2019-05-02T04:10:20.163Z,21.00
2019-05-02T04:12:53.018Z,26.30
2019-05-02T04:15:22.430Z,24.87
2019-05-02T04:17:52.664Z,25.67
2019-05-02T04:20:23.388Z,21.40
2019-05-02T04:22:55.090Z,24.30
2019-05-02T04:25:28.139Z,22.03
2019-05-02T04:27:58.012Z,18.83
2019-05-02T04:30:28.061Z,23.90
2019-05-02T04:32:57.976Z,24.30
2019-05-02T04:35:28.854Z,26.50
2019-05-02T04:38:02.717Z,22.82
2019-05-02T04:40:34.954Z,18.98
2019-05-02T04:43:10.444Z,29.02
2019-05-02T04:45:47.250Z,23.07
2019-05-02T04:48:08.177Z,25.37
2019-05-02T04:50:37.920Z,34.33
2019-05-02T04:53:08.632Z,24.87
2019-05-02T04:55:39.695Z,24.55
2019-05-02T04:58:09.578Z,23.10
2019-05-02T05:00:45.175Z,29.27
2019-05-02T05:03:15.676Z,22.43
2019-05-02T05:05:42.703Z,28.87
2019-05-02T05:08:17.476Z,25.33
2019-05-02T05:10:45.041Z,29.67
2019-05-02T05:13:19.858Z,41.25
2019-05-02T05:15:51.279Z,24.90
2019-05-02T05:18:18.453Z,29.07
2019-05-02T05:20:53.238Z,28.98
2019-05-02T05:23:21.693Z,29.27
2019-05-02T05:25:55.749Z,26.53
2019-05-02T05:28:24.915Z,28.20
2019-05-02T05:30:54.952Z,28.37
2019-05-02T05:33:24.844Z,27.57
2019-05-02T05:35:54.766Z,25.40
2019-05-02T05:38:28.574Z,26.53
2019-05-02T05:40:58.056Z,21.87
2019-05-02T05:43:29.155Z,26.40
2019-05-02T05:46:09.084Z,25.30
2019-05-02T05:48:32.199Z,24.73
2019-05-02T05:51:02.298Z,26.73
2019-05-02T05:53:32.216Z,24.23
2019-05-02T05:56:02.902Z,24.47
2019-05-02T05:58:32.820Z,27.73
2019-05-02T06:01:02.668Z,23.50
2019-05-02T06:03:34.058Z,23.63
2019-05-02T06:06:04.271Z,23.20
2019-05-02T06:08:34.206Z,25.33
2019-05-02T06:11:04.174Z,24.60
2019-05-02T06:13:34.074Z,25.80
2019-05-02T06:16:03.991Z,25.53
2019-05-02T06:18:36.485Z,27.63
2019-05-02T06:21:08.708Z,26.13
2019-05-02T06:23:41.071Z,27.40
2019-05-02T06:26:13.541Z,24.43
2019-05-02T06:28:41.585Z,28.70
2019-05-02T06:31:12.498Z,27.57
2019-05-02T06:33:42.359Z,23.70
2019-05-02T06:36:12.226Z,24.13
2019-05-02T06:38:42.194Z,22.30
2019-05-02T06:41:16.058Z,25.80
2019-05-02T06:43:46.738Z,28.53
2019-05-02T06:46:16.676Z,24.50
2019-05-02T06:48:48.218Z,27.13
2019-05-02T06:51:21.058Z,27.90
2019-05-02T06:53:51.246Z,28.13
2019-05-02T06:56:22.065Z,30.83
2019-05-02T06:58:52.014Z,26.50
2019-05-02T07:01:22.953Z,26.33
2019-05-02T07:03:53.084Z,28.07
2019-05-02T07:06:23.104Z,25.53
2019-05-02T07:08:53.176Z,27.17
2019-05-02T07:11:23.052Z,28.20
2019-05-02T07:13:52.979Z,27.83
2019-05-02T07:16:38.415Z,25.52
2019-05-02T07:19:03.600Z,29.93
2019-05-02T07:21:33.479Z,28.30
2019-05-02T07:24:03.716Z,27.83
2019-05-02T07:26:33.594Z,28.53
2019-05-02T07:29:03.492Z,29.33
2019-05-02T07:31:33.447Z,26.97
2019-05-02T07:34:03.375Z,28.87
2019-05-02T07:36:36.370Z,24.83
2019-05-02T07:39:07.750Z,29.43
2019-05-02T07:41:37.670Z,28.23
2019-05-02T07:44:07.581Z,26.70
2019-05-02T07:46:50.709Z,25.97
2019-05-02T07:49:09.019Z,26.60
2019-05-02T07:51:38.849Z,29.50
2019-05-02T07:54:08.763Z,29.57
2019-05-02T07:56:38.666Z,26.93
2019-05-02T07:59:08.623Z,28.60
2019-05-02T08:01:38.520Z,25.37
2019-05-02T08:04:11.093Z,26.50
2019-05-02T08:06:44.512Z,25.88
2019-05-02T08:09:11.777Z,23.57
2019-05-02T08:11:41.860Z,26.77
2019-05-02T08:14:11.727Z,25.47
2019-05-02T08:16:42.513Z,23.63
2019-05-02T08:19:12.461Z,28.30
2019-05-02T08:21:42.387Z,23.80
2019-05-02T08:24:12.291Z,22.65
2019-05-02T08:27:00.170Z,23.47
2019-05-02T08:29:30.787Z,22.00
2019-05-02T08:32:00.952Z,20.70
2019-05-02T08:34:32.803Z,20.57
2019-05-02T08:37:04.921Z,23.27
2019-05-02T08:39:35.309Z,22.17
2019-05-02T08:42:06.151Z,20.53
2019-05-02T08:44:49.450Z,19.85
2019-05-02T08:47:18.360Z,20.63
2019-05-02T08:49:39.151Z,21.77
2019-05-02T08:52:09.203Z,21.60
2019-05-02T08:54:39.020Z,23.80
2019-05-02T08:57:08.917Z,23.40
2019-05-02T08:59:40.893Z,21.87
2019-05-02T09:02:10.229Z,20.90
2019-05-02T09:04:40.093Z,19.80
2019-05-02T09:07:09.946Z,19.07
2019-05-02T09:09:39.785Z,19.25
2019-05-02T09:12:12.492Z,19.17
2019-05-02T09:14:42.604Z,22.13
2019-05-02T09:17:16.429Z,19.85
2019-05-02T09:19:44.098Z,19.10
2019-05-02T09:22:16.749Z,20.40
2019-05-02T09:24:45.402Z,18.97
2019-05-02T09:27:15.288Z,23.50
2019-05-02T09:29:46.190Z,18.37
2019-05-02T09:32:17.203Z,19.93
2019-05-02T09:34:47.609Z,20.00
2019-05-02T09:37:17.529Z,15.23
2019-05-02T09:39:47.366Z,19.15
2019-05-02T09:42:19.072Z,15.93
2019-05-02T09:44:55.690Z,12.53
2019-05-02T09:47:27.326Z,14.68
2019-05-02T09:50:09.073Z,9.75
2019-05-02T09:52:40.861Z,10.67
2019-05-02T09:55:12.203Z,11.00
2019-05-02T09:57:43.361Z,8.70
2019-05-02T10:00:17.911Z,8.50
2019-05-02T10:02:48.124Z,7.85
2019-05-02T10:05:18.092Z,7.67
2019-05-02T10:07:48.653Z,9.53
2019-05-02T10:10:19.143Z,7.58
2019-05-02T10:12:48.987Z,9.83
2019-05-02T10:15:19.124Z,4.93
2019-05-02T10:17:49.008Z,5.13
2019-05-02T10:20:23.508Z,4.93
2019-05-02T10:22:52.816Z,5.40
2019-05-02T10:25:23.159Z,4.87
2019-05-02T10:27:53.259Z,5.25
2019-05-02T10:30:25.228Z,5.83
2019-05-02T10:32:57.294Z,4.45
2019-05-02T10:35:36.521Z,6.83
2019-05-02T10:37:59.675Z,8.03
2019-05-02T10:40:32.001Z,11.50
2019-05-02T10:43:02.773Z,10.53
2019-05-02T10:45:32.980Z,12.67
2019-05-02T10:48:03.555Z,15.70
2019-05-02T10:50:35.066Z,15.13
2019-05-02T10:53:11.027Z,20.47
2019-05-02T10:55:36.665Z,18.23
2019-05-02T10:58:06.570Z,21.50
2019-05-02T11:00:38.263Z,19.30
2019-05-02T11:03:22.528Z,20.27
2019-05-02T11:05:58.013Z,21.07
2019-05-02T11:08:25.648Z,19.77
2019-05-02T11:10:55.535Z,21.40
2019-05-02T11:13:32.172Z,23.80
2019-05-02T11:16:21.634Z,22.13
2019-05-02T11:18:54.407Z,26.07
2019-05-02T11:21:24.594Z,21.52
2019-05-02T11:23:54.678Z,26.43
2019-05-02T11:26:25.279Z,22.10
2019-05-02T11:28:55.397Z,23.17
2019-05-02T11:31:25.389Z,22.37
2019-05-02T11:33:55.320Z,26.63
2019-05-02T11:36:27.449Z,24.67
2019-05-02T11:39:05.538Z,25.57
2019-05-02T11:41:28.245Z,21.07
2019-05-02T11:43:58.162Z,25.67
2019-05-02T11:46:28.033Z,22.70
2019-05-02T11:48:58.695Z,24.00
2019-05-02T11:51:28.879Z,23.57
2019-05-02T11:53:59.449Z,22.67
2019-05-02T11:56:32.789Z,24.30
2019-05-02T11:59:02.832Z,20.60
2019-05-02T12:01:37.370Z,22.00
2019-05-02T12:04:07.688Z,19.60
2019-05-02T12:06:36.221Z,20.63
2019-05-02T12:09:09.570Z,20.30
2019-05-02T12:11:41.739Z,23.30
2019-05-02T12:14:12.352Z,20.80
2019-05-02T12:16:43.124Z,20.82
2019-05-02T12:19:14.921Z,19.27
2019-05-02T12:21:53.802Z,24.67
2019-05-02T12:24:23.678Z,15.40
2019-05-02T12:26:54.619Z,14.77
2019-05-02T12:29:24.559Z,16.00
2019-05-02T12:32:15.370Z,15.67
2019-05-02T12:34:44.087Z,13.90
2019-05-02T12:37:14.041Z,10.63
2019-05-02T12:39:43.887Z,6.87
2019-05-02T12:42:14.164Z,9.43
2019-05-02T12:44:44.504Z,11.13
2019-05-02T12:47:14.469Z,7.73
2019-05-02T12:49:44.664Z,8.23
2019-05-02T12:52:14.604Z,7.63
2019-05-02T12:54:44.503Z,11.43
2019-05-02T12:57:14.399Z,10.63
2019-05-02T12:59:44.267Z,9.00
2019-05-02T13:02:15.905Z,8.03
2019-05-02T13:04:47.169Z,7.80
2019-05-02T13:07:18.022Z,6.63
2019-05-02T13:09:47.902Z,7.07
2019-05-02T13:12:19.423Z,4.70
2019-05-02T13:14:49.345Z,6.33
2019-05-02T13:17:19.291Z,6.63
2019-05-02T13:19:57.013Z,6.63
2019-05-02T13:22:25.209Z,7.20
2019-05-02T13:24:56.677Z,4.50
2019-05-02T13:27:26.759Z,7.97
2019-05-02T13:29:56.754Z,5.10
2019-05-02T13:32:34.162Z,4.30
2019-05-02T13:35:15.751Z,7.20
2019-05-02T13:37:47.226Z,7.80
2019-05-02T13:40:22.578Z,7.27
2019-05-02T13:42:52.862Z,6.57
2019-05-02T13:45:32.292Z,6.40
2019-05-02T13:48:02.747Z,4.83
2019-05-02T13:50:32.779Z,3.57
2019-05-02T13:53:02.947Z,5.17
2019-05-02T13:55:43.444Z,7.20
2019-05-02T13:58:13.399Z,5.57
2019-05-02T14:00:47.457Z,4.10
2019-05-02T14:03:17.856Z,4.03
2019-05-02T14:05:53.693Z,5.50
2019-05-02T14:08:35.375Z,6.75
2019-05-02T14:11:07.138Z,7.83
2019-05-02T14:13:37.494Z,5.20
2019-05-02T14:16:07.360Z,3.43
2019-05-02T14:18:37.262Z,4.93
2019-05-02T14:21:07.189Z,3.72
2019-05-02T14:23:37.116Z,3.60
2019-05-02T14:26:07.180Z,5.33
2019-05-02T14:28:37.096Z,5.00
2019-05-02T14:31:07.091Z,3.27
2019-05-02T14:33:38.563Z,5.23
2019-05-02T14:36:08.407Z,3.13
2019-05-02T14:38:38.337Z,6.50
2019-05-02T14:41:09.746Z,2.60
2019-05-02T14:43:55.727Z,4.00
2019-05-02T14:46:34.237Z,1.50
2019-05-02T14:48:58.063Z,1.27
2019-05-02T14:51:28.235Z,2.27
2019-05-02T14:54:05.840Z,2.57
2019-05-02T14:56:32.872Z,4.60
2019-05-02T14:59:03.336Z,2.50
2019-05-02T15:01:33.321Z,4.10
2019-05-02T15:04:07.954Z,4.60
2019-05-02T15:06:38.380Z,4.83
2019-05-02T15:09:08.803Z,6.17
2019-05-02T15:11:42.616Z,4.53
2019-05-02T15:14:18.364Z,9.30
2019-05-02T15:16:45.256Z,8.70
2019-05-02T15:19:15.004Z,10.83
2019-05-02T15:21:47.037Z,11.43
2019-05-02T15:24:17.524Z,8.73
2019-05-02T15:26:48.018Z,11.27
2019-05-02T15:29:19.857Z,6.63
2019-05-02T15:32:09.099Z,9.77
2019-05-02T15:34:55.958Z,10.10
2019-05-02T15:37:26.119Z,10.50
2019-05-02T15:42:27.528Z,9.78
2019-05-02T15:45:02.049Z,8.47
2019-05-02T15:47:31.946Z,11.40
2019-05-02T15:50:02.988Z,10.70
2019-05-02T15:52:34.732Z,10.63
2019-05-02T15:55:06.654Z,9.63
2019-05-02T15:57:42.799Z,10.03
2019-05-02T16:00:15.500Z,11.63
2019-05-02T16:02:43.102Z,11.57
2019-05-02T16:05:14.196Z,12.60
2019-05-02T16:07:46.678Z,15.20
2019-05-02T16:10:16.040Z,16.17
2019-05-02T16:12:47.573Z,9.77
2019-05-02T16:15:21.474Z,8.85
2019-05-02T16:17:48.990Z,10.93
2019-05-02T16:20:24.055Z,13.43
2019-05-02T16:22:54.173Z,12.87
2019-05-02T16:25:25.928Z,13.80
2019-05-02T16:27:57.422Z,11.13
2019-05-02T16:30:27.415Z,12.73
2019-05-02T16:32:58.859Z,9.90
2019-05-02T16:35:30.305Z,12.30
2019-05-02T16:38:00.311Z,12.30
2019-05-02T16:40:32.809Z,10.93
2019-05-02T16:43:02.858Z,11.37
2019-05-02T16:45:32.976Z,13.97
2019-05-02T16:48:03.423Z,10.70
2019-05-02T16:50:36.747Z,10.27
2019-05-02T16:53:05.392Z,18.83
2019-05-02T16:55:35.389Z,11.93
2019-05-02T16:58:07.366Z,11.60
2019-05-02T17:00:41.839Z,11.23
2019-05-02T17:03:08.612Z,10.43
2019-05-02T17:05:39.348Z,13.17
2019-05-02T17:08:18.861Z,11.70
2019-05-02T17:10:47.259Z,11.27
2019-05-02T17:13:17.220Z,12.03
2019-05-02T17:15:47.147Z,14.07
2019-05-02T17:18:18.217Z,13.23
2019-05-02T17:20:54.944Z,19.03
2019-05-02T17:23:22.131Z,8.40
2019-05-02T17:25:52.148Z,10.50
2019-05-02T17:28:22.762Z,12.00
2019-05-02T17:30:52.710Z,6.50
2019-05-02T17:33:22.596Z,7.07
2019-05-02T17:35:54.366Z,3.07
2019-05-02T17:38:28.893Z,5.27
2019-05-02T17:40:59.336Z,3.50
2019-05-02T17:43:27.003Z,2.43
2019-05-02T17:45:56.960Z,4.03
2019-05-02T17:48:26.860Z,4.27
2019-05-02T17:51:04.385Z,1.83
2019-05-02T17:53:41.540Z,2.17
2019-05-02T17:56:06.073Z,2.63
2019-05-02T17:58:35.951Z,3.00
2019-05-02T18:01:07.564Z,1.97
2019-05-02T18:03:37.431Z,1.80
2019-05-02T18:06:12.544Z,3.00
2019-05-02T18:08:39.098Z,2.57
2019-05-02T18:11:09.235Z,3.30
2019-05-02T18:13:39.200Z,1.47
2019-05-02T18:16:15.121Z,4.67
2019-05-02T18:18:43.713Z,1.57
2019-05-02T18:21:12.791Z,2.57
2019-05-02T18:23:43.009Z,2.83
2019-05-02T18:26:13.043Z,1.23
2019-05-02T18:28:49.003Z,1.97
2019-05-02T18:31:14.571Z,5.93
2019-05-02T18:33:44.638Z,3.10
2019-05-02T18:36:17.380Z,2.63
2019-05-02T18:38:46.103Z,1.93
2019-05-02T18:41:16.022Z,1.70
2019-05-02T18:43:45.900Z,1.30
2019-05-02T18:46:15.932Z,2.47
2019-05-02T18:48:49.003Z,2.17
2019-05-02T18:51:19.024Z,1.50
2019-05-02T18:53:49.077Z,1.97
2019-05-02T18:56:18.989Z,1.97
2019-05-02T18:58:48.851Z,2.60
2019-05-02T19:01:20.943Z,1.67
2019-05-02T19:03:52.433Z,2.13
2019-05-02T19:06:22.168Z,1.83
2019-05-02T19:08:55.424Z,4.00
2019-05-02T19:11:26.754Z,1.27
2019-05-02T19:13:57.843Z,0.70
2019-05-02T19:16:28.845Z,1.07
2019-05-02T19:19:01.739Z,1.90
2019-05-02T19:21:36.782Z,0.70
2019-05-02T19:24:04.608Z,2.60
2019-05-02T19:26:34.482Z,1.37
2019-05-02T19:29:16.966Z,1.30
2019-05-02T19:31:46.307Z,1.37
2019-05-02T19:34:21.994Z,2.33
2019-05-02T19:36:48.300Z,2.03
2019-05-02T19:39:18.184Z,3.27
2019-05-02T19:41:48.084Z,0.97
2019-05-02T19:44:26.149Z,0.83
2019-05-02T19:46:49.478Z,2.27
2019-05-02T19:49:19.452Z,1.33
2019-05-02T19:51:50.353Z,2.43
2019-05-02T19:54:21.846Z,1.70
2019-05-02T19:56:52.480Z,1.17
2019-05-02T19:59:26.314Z,1.20
2019-05-02T20:01:56.920Z,1.87
2019-05-02T20:04:25.805Z,2.53
2019-05-02T20:06:55.721Z,3.20
2019-05-02T20:09:25.708Z,1.50
2019-05-02T20:11:55.635Z,1.63
2019-05-02T20:14:25.634Z,1.67
2019-05-02T20:16:57.055Z,1.70
2019-05-02T20:19:27.647Z,2.27
2019-05-02T20:22:02.977Z,1.57
2019-05-02T20:24:49.152Z,1.63
2019-05-02T20:27:22.295Z,2.00
2019-05-02T20:29:52.849Z,1.53
2019-05-02T20:32:23.735Z,2.17
2019-05-02T20:34:53.620Z,1.53
2019-05-02T20:37:23.546Z,1.40
2019-05-02T20:39:53.698Z,1.93
2019-05-02T20:42:23.591Z,3.70
2019-05-02T20:44:54.543Z,3.37
2019-05-02T20:47:25.739Z,2.13
2019-05-02T20:49:55.633Z,2.73
2019-05-02T20:52:25.544Z,1.60
2019-05-02T20:54:55.478Z,2.43
2019-05-02T20:57:25.358Z,3.10
2019-05-02T20:59:55.342Z,0.83
2019-05-02T21:02:25.237Z,3.77
2019-05-02T21:04:55.132Z,1.13
2019-05-02T21:07:26.707Z,1.50
2019-05-02T21:10:01.952Z,0.97
2019-05-02T21:12:32.117Z,1.00
2019-05-02T21:15:02.280Z,0.63
2019-05-02T21:17:33.285Z,1.07
2019-05-02T21:20:03.370Z,1.33
2019-05-02T21:22:35.227Z,1.00
2019-05-02T21:25:07.091Z,1.40
2019-05-02T21:27:36.980Z,1.93
2019-05-02T21:30:12.358Z,1.23
2019-05-02T21:32:42.827Z,1.63
2019-05-02T21:35:13.046Z,3.23
2019-05-02T21:37:42.907Z,3.33
2019-05-02T21:40:13.013Z,2.20
2019-05-02T21:42:43.103Z,1.63
2019-05-02T21:45:13.350Z,1.73
2019-05-02T21:47:43.292Z,1.33
2019-05-02T21:50:15.077Z,1.37
2019-05-02T21:52:46.612Z,1.83
2019-05-02T21:55:24.094Z,2.83
2019-05-02T21:57:54.006Z,2.77
2019-05-02T22:00:45.877Z,3.57
2019-05-02T22:03:16.415Z,1.93
2019-05-02T22:05:46.659Z,1.93
2019-05-02T22:08:16.645Z,2.20
2019-05-02T22:10:46.767Z,2.03
2019-05-02T22:13:16.625Z,2.17
2019-05-02T22:15:46.538Z,3.33
2019-05-02T22:18:16.631Z,2.63
2019-05-02T22:20:46.537Z,2.60
2019-05-02T22:23:16.546Z,2.20
2019-05-02T22:25:46.426Z,2.93
2019-05-02T22:28:16.340Z,2.03
2019-05-02T22:30:46.210Z,5.40
2019-05-02T22:33:16.087Z,3.47
2019-05-02T22:35:45.948Z,1.77
2019-05-02T22:38:34.306Z,3.53
2019-05-02T22:41:04.287Z,4.30
2019-05-02T22:43:34.290Z,2.63
2019-05-02T22:46:05.776Z,2.10
2019-05-02T22:48:35.839Z,3.33
2019-05-02T22:51:05.798Z,2.07
2019-05-02T22:53:53.827Z,3.90
2019-05-02T22:56:23.726Z,1.73
2019-05-02T22:58:53.646Z,2.93
2019-05-02T23:01:23.605Z,2.73
2019-05-02T23:03:53.503Z,1.87
2019-05-02T23:06:23.437Z,2.23
2019-05-02T23:08:53.319Z,2.80
2019-05-02T23:11:24.515Z,4.57
2019-05-02T23:13:54.562Z,4.23
2019-05-02T23:16:24.958Z,2.33
2019-05-02T23:18:54.832Z,2.00
2019-05-02T23:21:24.999Z,2.67
2019-05-02T23:23:55.102Z,2.60
2019-05-02T23:26:32.442Z,2.80
2019-05-02T23:29:03.939Z,3.13
2019-05-02T23:31:33.818Z,3.27
2019-05-02T23:34:03.702Z,2.93
2019-05-02T23:36:36.216Z,4.20
2019-05-02T23:39:09.415Z,4.50
2019-05-02T23:41:39.680Z,3.30
2019-05-02T23:44:09.578Z,2.60
2019-05-02T23:46:39.494Z,3.17
2019-05-02T23:49:09.359Z,4.00
2019-05-02T23:51:40.240Z,3.50
2019-05-02T23:54:10.099Z,4.63
2019-05-02T23:56:40.139Z,3.17
2019-05-02T23:59:11.772Z,2.60
